sensor_id;sensor_type;location;lat;lon;timestamp;temperature;humidity
4451;DHT22;2238;50.180;9.230;2022-09-09T00:02:56;17.00;99.90
4451;DHT22;2238;50.180;9.230;2022-09-09T00:06:16;17.10;99.90
4451;DHT22;2238;50.180;9.230;2022-09-09T00:09:21;17.40;99.90
4451;DHT22;2238;50.180;9.230;2022-09-09T00:16:04;16.90;99.90
4451;DHT22;2238;50.180;9.230;2022-09-09T00:22:23;17.00;99.90
4451;DHT22;2238;50.180;9.230;2022-09-09T00:25:29;17.00;99.90
4451;DHT22;2238;50.180;9.230;2022-09-09T00:28:39;17.10;99.90
4451;DHT22;2238;50.180;9.230;2022-09-09T00:31:40;17.00;99.90
4451;DHT22;2238;50.180;9.230;2022-09-09T00:35:00;17.10;99.90
4451;DHT22;2238;50.180;9.230;2022-09-09T00:41:57;17.00;99.90
4451;DHT22;2238;50.180;9.230;2022-09-09T00:48:15;17.00;99.90
4451;DHT22;2238;50.180;9.230;2022-09-09T00:51:26;17.10;99.90
4451;DHT22;2238;50.180;9.230;2022-09-09T00:57:56;16.70;99.90
4451;DHT22;2238;50.180;9.230;2022-09-09T01:01:05;17.00;99.90
4451;DHT22;2238;50.180;9.230;2022-09-09T01:04:13;17.20;99.90
4451;DHT22;2238;50.180;9.230;2022-09-09T01:07:18;17.10;99.90
4451;DHT22;2238;50.180;9.230;2022-09-09T01:10:51;17.10;99.90
4451;DHT22;2238;50.180;9.230;2022-09-09T01:14:11;17.10;99.90
4451;DHT22;2238;50.180;9.230;2022-09-09T01:20:31;17.00;99.90
4451;DHT22;2238;50.180;9.230;2022-09-09T01:27:01;17.20;99.90
4451;DHT22;2238;50.180;9.230;2022-09-09T01:30:10;17.30;99.90
4451;DHT22;2238;50.180;9.230;2022-09-09T01:33:14;17.30;99.90
4451;DHT22;2238;50.180;9.230;2022-09-09T01:36:26;17.50;99.90
4451;DHT22;2238;50.180;9.230;2022-09-09T01:39:28;17.50;99.90
4451;DHT22;2238;50.180;9.230;2022-09-09T01:42:29;17.50;99.90
4451;DHT22;2238;50.180;9.230;2022-09-09T01:45:30;17.40;99.90
4451;DHT22;2238;50.180;9.230;2022-09-09T01:48:31;17.30;99.90
4451;DHT22;2238;50.180;9.230;2022-09-09T01:51:33;17.30;99.90
4451;DHT22;2238;50.180;9.230;2022-09-09T01:54:34;17.20;99.90
4451;DHT22;2238;50.180;9.230;2022-09-09T02:07:39;17.30;99.90
4451;DHT22;2238;50.180;9.230;2022-09-09T02:11:12;17.20;99.90
4451;DHT22;2238;50.180;9.230;2022-09-09T02:14:17;17.10;99.90
4451;DHT22;2238;50.180;9.230;2022-09-09T02:17:24;17.00;99.90
4451;DHT22;2238;50.180;9.230;2022-09-09T02:20:26;17.00;99.90
4451;DHT22;2238;50.180;9.230;2022-09-09T02:23:28;16.70;99.90
4451;DHT22;2238;50.180;9.230;2022-09-09T02:26:31;16.90;99.90
4451;DHT22;2238;50.180;9.230;2022-09-09T02:29:36;17.30;99.90
4451;DHT22;2238;50.180;9.230;2022-09-09T02:32:40;16.90;99.90
4451;DHT22;2238;50.180;9.230;2022-09-09T02:35:43;16.80;99.90
4451;DHT22;2238;50.180;9.230;2022-09-09T02:38:46;16.90;99.90
4451;DHT22;2238;50.180;9.230;2022-09-09T02:41:53;16.80;99.90
4451;DHT22;2238;50.180;9.230;2022-09-09T02:44:53;16.70;99.90
4451;DHT22;2238;50.180;9.230;2022-09-09T02:48:09;16.90;99.90
4451;DHT22;2238;50.180;9.230;2022-09-09T02:51:44;17.00;99.90
4451;DHT22;2238;50.180;9.230;2022-09-09T02:54:48;17.00;99.90
4451;DHT22;2238;50.180;9.230;2022-09-09T02:57:51;19.50;99.90
4451;DHT22;2238;50.180;9.230;2022-09-09T03:00:52;18.80;99.90
4451;DHT22;2238;50.180;9.230;2022-09-09T03:03:53;17.10;99.90
4451;DHT22;2238;50.180;9.230;2022-09-09T03:06:55;17.80;99.90
4451;DHT22;2238;50.180;9.230;2022-09-09T03:09:56;17.30;99.90
4451;DHT22;2238;50.180;9.230;2022-09-09T03:12:56;17.20;99.90
4451;DHT22;2238;50.180;9.230;2022-09-09T03:15:57;17.30;99.90
4451;DHT22;2238;50.180;9.230;2022-09-09T03:18:57;17.30;99.90
4451;DHT22;2238;50.180;9.230;2022-09-09T03:21:58;17.30;99.90
4451;DHT22;2238;50.180;9.230;2022-09-09T03:24:59;17.50;99.90
4451;DHT22;2238;50.180;9.230;2022-09-09T03:28:00;18.90;99.90
4451;DHT22;2238;50.180;9.230;2022-09-09T03:31:02;17.40;99.90
4451;DHT22;2238;50.180;9.230;2022-09-09T03:34:03;17.40;99.90
4451;DHT22;2238;50.180;9.230;2022-09-09T03:37:04;17.40;99.90
4451;DHT22;2238;50.180;9.230;2022-09-09T03:40:06;17.40;99.90
4451;DHT22;2238;50.180;9.230;2022-09-09T03:43:07;17.30;99.90
4451;DHT22;2238;50.180;9.230;2022-09-09T03:46:07;17.20;99.90
4451;DHT22;2238;50.180;9.230;2022-09-09T03:49:08;17.30;99.90
4451;DHT22;2238;50.180;9.230;2022-09-09T03:52:10;17.30;99.90
4451;DHT22;2238;50.180;9.230;2022-09-09T03:55:11;18.50;99.90
4451;DHT22;2238;50.180;9.230;2022-09-09T03:58:15;17.30;99.90
4451;DHT22;2238;50.180;9.230;2022-09-09T04:01:16;17.10;99.90
4451;DHT22;2238;50.180;9.230;2022-09-09T04:04:18;17.10;99.90
4451;DHT22;2238;50.180;9.230;2022-09-09T04:07:20;17.10;99.90
4451;DHT22;2238;50.180;9.230;2022-09-09T04:10:21;17.90;99.90
4451;DHT22;2238;50.180;9.230;2022-09-09T04:13:22;17.00;99.90
4451;DHT22;2238;50.180;9.230;2022-09-09T04:16:23;17.10;99.90
4451;DHT22;2238;50.180;9.230;2022-09-09T04:19:23;16.90;99.90
4451;DHT22;2238;50.180;9.230;2022-09-09T04:22:24;16.70;99.90
4451;DHT22;2238;50.180;9.230;2022-09-09T04:25:24;17.00;99.90
4451;DHT22;2238;50.180;9.230;2022-09-09T04:28:27;16.70;99.90
4451;DHT22;2238;50.180;9.230;2022-09-09T04:31:29;17.40;99.90
4451;DHT22;2238;50.180;9.230;2022-09-09T04:34:29;16.70;99.90
4451;DHT22;2238;50.180;9.230;2022-09-09T04:37:30;16.70;99.90
4451;DHT22;2238;50.180;9.230;2022-09-09T04:40:31;16.50;99.90
4451;DHT22;2238;50.180;9.230;2022-09-09T04:43:32;16.60;99.90
4451;DHT22;2238;50.180;9.230;2022-09-09T04:46:32;16.80;99.90
4451;DHT22;2238;50.180;9.230;2022-09-09T04:49:34;16.40;99.90
4451;DHT22;2238;50.180;9.230;2022-09-09T04:52:35;16.30;99.90
4451;DHT22;2238;50.180;9.230;2022-09-09T04:55:36;16.50;99.90
4451;DHT22;2238;50.180;9.230;2022-09-09T04:58:37;16.70;99.90
4451;DHT22;2238;50.180;9.230;2022-09-09T05:01:38;16.70;99.90
4451;DHT22;2238;50.180;9.230;2022-09-09T05:04:39;16.60;99.90
4451;DHT22;2238;50.180;9.230;2022-09-09T05:07:39;16.70;99.90
4451;DHT22;2238;50.180;9.230;2022-09-09T05:10:40;16.70;99.90
4451;DHT22;2238;50.180;9.230;2022-09-09T05:13:42;16.70;99.90
4451;DHT22;2238;50.180;9.230;2022-09-09T05:16:44;16.70;99.90
4451;DHT22;2238;50.180;9.230;2022-09-09T05:19:45;16.50;99.90
4451;DHT22;2238;50.180;9.230;2022-09-09T05:22:45;16.50;99.90
4451;DHT22;2238;50.180;9.230;2022-09-09T05:25:56;16.80;99.90
4451;DHT22;2238;50.180;9.230;2022-09-09T05:28:57;16.60;99.90
4451;DHT22;2238;50.180;9.230;2022-09-09T05:31:59;17.60;99.90
4451;DHT22;2238;50.180;9.230;2022-09-09T05:35:00;16.80;99.90
4451;DHT22;2238;50.180;9.230;2022-09-09T05:38:01;17.50;99.90
4451;DHT22;2238;50.180;9.230;2022-09-09T05:41:03;17.20;99.90
4451;DHT22;2238;50.180;9.230;2022-09-09T05:44:03;16.80;99.90
4451;DHT22;2238;50.180;9.230;2022-09-09T05:47:05;17.90;99.90
4451;DHT22;2238;50.180;9.230;2022-09-09T05:50:06;16.60;99.90
4451;DHT22;2238;50.180;9.230;2022-09-09T05:53:07;16.60;99.90
4451;DHT22;2238;50.180;9.230;2022-09-09T05:56:10;17.50;99.90
4451;DHT22;2238;50.180;9.230;2022-09-09T05:59:11;16.60;99.90
4451;DHT22;2238;50.180;9.230;2022-09-09T06:02:12;16.70;99.90
4451;DHT22;2238;50.180;9.230;2022-09-09T06:05:13;16.80;99.90
4451;DHT22;2238;50.180;9.230;2022-09-09T06:08:15;16.80;99.90
4451;DHT22;2238;50.180;9.230;2022-09-09T06:14:18;17.90;99.90
4451;DHT22;2238;50.180;9.230;2022-09-09T06:17:19;18.90;99.90
4451;DHT22;2238;50.180;9.230;2022-09-09T06:20:20;18.00;99.90
4451;DHT22;2238;50.180;9.230;2022-09-09T06:23:20;17.90;99.90
4451;DHT22;2238;50.180;9.230;2022-09-09T06:26:23;17.00;99.90
4451;DHT22;2238;50.180;9.230;2022-09-09T06:29:25;17.00;99.90
4451;DHT22;2238;50.180;9.230;2022-09-09T06:32:26;17.10;99.90
4451;DHT22;2238;50.180;9.230;2022-09-09T06:35:27;17.60;99.90
4451;DHT22;2238;50.180;9.230;2022-09-09T06:38:28;18.10;99.90
4451;DHT22;2238;50.180;9.230;2022-09-09T06:41:31;16.90;99.90
4451;DHT22;2238;50.180;9.230;2022-09-09T06:44:32;16.80;99.90
4451;DHT22;2238;50.180;9.230;2022-09-09T06:47:34;17.20;99.90
4451;DHT22;2238;50.180;9.230;2022-09-09T06:50:34;17.10;99.90
4451;DHT22;2238;50.180;9.230;2022-09-09T06:53:37;17.50;99.90
4451;DHT22;2238;50.180;9.230;2022-09-09T06:56:40;17.00;99.90
4451;DHT22;2238;50.180;9.230;2022-09-09T06:59:42;16.90;99.90
4451;DHT22;2238;50.180;9.230;2022-09-09T07:02:42;17.00;99.90
4451;DHT22;2238;50.180;9.230;2022-09-09T07:05:43;16.90;99.90
4451;DHT22;2238;50.180;9.230;2022-09-09T07:08:52;18.40;99.90
4451;DHT22;2238;50.180;9.230;2022-09-09T07:11:52;17.10;99.90
4451;DHT22;2238;50.180;9.230;2022-09-09T07:14:54;17.20;99.90
4451;DHT22;2238;50.180;9.230;2022-09-09T07:18:01;17.00;99.90
4451;DHT22;2238;50.180;9.230;2022-09-09T07:21:03;17.00;99.90
4451;DHT22;2238;50.180;9.230;2022-09-09T07:24:04;17.10;99.90
4451;DHT22;2238;50.180;9.230;2022-09-09T07:27:07;17.30;99.90
4451;DHT22;2238;50.180;9.230;2022-09-09T07:30:08;17.60;99.90
4451;DHT22;2238;50.180;9.230;2022-09-09T07:33:09;18.20;99.90
4451;DHT22;2238;50.180;9.230;2022-09-09T07:36:22;17.10;99.90
4451;DHT22;2238;50.180;9.230;2022-09-09T07:39:24;18.70;99.90
4451;DHT22;2238;50.180;9.230;2022-09-09T07:42:24;20.10;99.90
4451;DHT22;2238;50.180;9.230;2022-09-09T07:45:26;20.70;99.90
4451;DHT22;2238;50.180;9.230;2022-09-09T07:48:29;22.30;99.90
4451;DHT22;2238;50.180;9.230;2022-09-09T07:51:32;20.10;99.90
4451;DHT22;2238;50.180;9.230;2022-09-09T07:54:33;20.20;99.90
4451;DHT22;2238;50.180;9.230;2022-09-09T07:57:34;22.00;99.90
4451;DHT22;2238;50.180;9.230;2022-09-09T08:00:34;19.80;99.90
4451;DHT22;2238;50.180;9.230;2022-09-09T08:03:36;19.40;99.90
4451;DHT22;2238;50.180;9.230;2022-09-09T08:06:38;20.90;99.90
4451;DHT22;2238;50.180;9.230;2022-09-09T08:09:39;19.00;99.90
4451;DHT22;2238;50.180;9.230;2022-09-09T08:12:40;18.70;99.90
4451;DHT22;2238;50.180;9.230;2022-09-09T08:15:41;18.90;99.90
4451;DHT22;2238;50.180;9.230;2022-09-09T08:18:42;19.00;99.90
4451;DHT22;2238;50.180;9.230;2022-09-09T08:21:44;18.80;99.90
4451;DHT22;2238;50.180;9.230;2022-09-09T08:24:44;18.50;99.90
4451;DHT22;2238;50.180;9.230;2022-09-09T08:27:45;19.80;99.90
4451;DHT22;2238;50.180;9.230;2022-09-09T08:30:45;18.90;99.90
4451;DHT22;2238;50.180;9.230;2022-09-09T08:33:48;21.80;99.90
4451;DHT22;2238;50.180;9.230;2022-09-09T08:36:51;18.80;99.90
4451;DHT22;2238;50.180;9.230;2022-09-09T08:39:52;18.80;99.90
4451;DHT22;2238;50.180;9.230;2022-09-09T08:42:55;19.30;99.90
4451;DHT22;2238;50.180;9.230;2022-09-09T08:46:07;19.60;99.90
4451;DHT22;2238;50.180;9.230;2022-09-09T08:53:34;18.10;99.90
4451;DHT22;2238;50.180;9.230;2022-09-09T08:56:20;18.20;99.90
4451;DHT22;2238;50.180;9.230;2022-09-09T08:59:22;18.70;99.90
4451;DHT22;2238;50.180;9.230;2022-09-09T09:05:47;18.90;99.90
4451;DHT22;2238;50.180;9.230;2022-09-09T09:12:13;19.00;99.90
4451;DHT22;2238;50.180;9.230;2022-09-09T09:15:22;19.30;99.90
4451;DHT22;2238;50.180;9.230;2022-09-09T09:18:23;18.60;99.90
4451;DHT22;2238;50.180;9.230;2022-09-09T09:21:38;19.20;99.90
4451;DHT22;2238;50.180;9.230;2022-09-09T09:24:49;18.80;99.90
4451;DHT22;2238;50.180;9.230;2022-09-09T09:31:19;18.80;99.90
4451;DHT22;2238;50.180;9.230;2022-09-09T09:34:20;18.40;99.90
4451;DHT22;2238;50.180;9.230;2022-09-09T09:37:30;18.40;99.90
4451;DHT22;2238;50.180;9.230;2022-09-09T09:40:31;18.50;99.90
4451;DHT22;2238;50.180;9.230;2022-09-09T09:43:34;18.60;99.90
4451;DHT22;2238;50.180;9.230;2022-09-09T09:46:35;18.40;99.90
4451;DHT22;2238;50.180;9.230;2022-09-09T09:49:36;18.60;99.90
4451;DHT22;2238;50.180;9.230;2022-09-09T09:52:37;18.90;99.90
4451;DHT22;2238;50.180;9.230;2022-09-09T09:55:58;19.50;99.90
4451;DHT22;2238;50.180;9.230;2022-09-09T09:59:00;19.00;99.90
4451;DHT22;2238;50.180;9.230;2022-09-09T10:05:20;21.00;99.90
4451;DHT22;2238;50.180;9.230;2022-09-09T10:08:20;19.30;99.90
4451;DHT22;2238;50.180;9.230;2022-09-09T10:11:45;19.80;99.90
4451;DHT22;2238;50.180;9.230;2022-09-09T10:15:01;18.90;99.90
4451;DHT22;2238;50.180;9.230;2022-09-09T10:22:11;19.00;99.90
4451;DHT22;2238;50.180;9.230;2022-09-09T10:28:57;19.10;99.90
4451;DHT22;2238;50.180;9.230;2022-09-09T10:56:19;19.50;99.90
4451;DHT22;2238;50.180;9.230;2022-09-09T10:59:24;19.40;99.90
4451;DHT22;2238;50.180;9.230;2022-09-09T11:02:30;20.00;99.90
4451;DHT22;2238;50.180;9.230;2022-09-09T11:05:46;23.30;99.90
4451;DHT22;2238;50.180;9.230;2022-09-09T11:08:50;20.90;99.90
4451;DHT22;2238;50.180;9.230;2022-09-09T11:11:58;22.60;99.90
4451;DHT22;2238;50.180;9.230;2022-09-09T11:15:12;22.40;99.90
4451;DHT22;2238;50.180;9.230;2022-09-09T11:18:21;20.70;99.90
4451;DHT22;2238;50.180;9.230;2022-09-09T11:21:27;20.50;99.90
4451;DHT22;2238;50.180;9.230;2022-09-09T11:24:43;19.10;99.90
4451;DHT22;2238;50.180;9.230;2022-09-09T11:34:58;20.60;99.90
4451;DHT22;2238;50.180;9.230;2022-09-09T11:41:36;20.40;99.90
4451;DHT22;2238;50.180;9.230;2022-09-09T11:44:39;20.50;99.90
4451;DHT22;2238;50.180;9.230;2022-09-09T11:47:50;20.40;99.90
4451;DHT22;2238;50.180;9.230;2022-09-09T11:54:34;20.40;99.90
4451;DHT22;2238;50.180;9.230;2022-09-09T11:57:44;20.40;99.90
4451;DHT22;2238;50.180;9.230;2022-09-09T12:00:48;20.40;99.90
4451;DHT22;2238;50.180;9.230;2022-09-09T12:03:52;20.20;99.90
4451;DHT22;2238;50.180;9.230;2022-09-09T12:10:30;20.00;99.90
4451;DHT22;2238;50.180;9.230;2022-09-09T12:13:33;20.00;99.90
4451;DHT22;2238;50.180;9.230;2022-09-09T12:16:37;20.10;99.90
4451;DHT22;2238;50.180;9.230;2022-09-09T12:19:38;22.70;99.90
4451;DHT22;2238;50.180;9.230;2022-09-09T12:26:07;19.60;99.90
4451;DHT22;2238;50.180;9.230;2022-09-09T12:29:37;19.40;99.90
4451;DHT22;2238;50.180;9.230;2022-09-09T12:32:40;19.50;99.90
4451;DHT22;2238;50.180;9.230;2022-09-09T12:35:43;19.30;99.90
4451;DHT22;2238;50.180;9.230;2022-09-09T12:38:45;19.40;99.90
4451;DHT22;2238;50.180;9.230;2022-09-09T12:41:53;19.70;99.90
4451;DHT22;2238;50.180;9.230;2022-09-09T12:45:02;23.00;99.90
4451;DHT22;2238;50.180;9.230;2022-09-09T12:48:07;20.20;99.90
4451;DHT22;2238;50.180;9.230;2022-09-09T12:51:41;20.00;99.90
4451;DHT22;2238;50.180;9.230;2022-09-09T12:54:45;22.10;99.90
4451;DHT22;2238;50.180;9.230;2022-09-09T12:57:54;21.00;99.90
4451;DHT22;2238;50.180;9.230;2022-09-09T13:00:56;22.60;99.90
4451;DHT22;2238;50.180;9.230;2022-09-09T13:03:57;22.50;99.90
4451;DHT22;2238;50.180;9.230;2022-09-09T13:07:08;20.10;99.90
4451;DHT22;2238;50.180;9.230;2022-09-09T13:10:13;22.50;99.90
4451;DHT22;2238;50.180;9.230;2022-09-09T13:13:15;20.00;99.90
4451;DHT22;2238;50.180;9.230;2022-09-09T13:16:32;20.10;99.90
4451;DHT22;2238;50.180;9.230;2022-09-09T13:19:37;20.00;99.90
4451;DHT22;2238;50.180;9.230;2022-09-09T13:22:39;19.80;99.90
4451;DHT22;2238;50.180;9.230;2022-09-09T13:25:41;19.70;99.90
4451;DHT22;2238;50.180;9.230;2022-09-09T13:28:41;21.80;99.90
4451;DHT22;2238;50.180;9.230;2022-09-09T13:31:42;19.80;99.90
4451;DHT22;2238;50.180;9.230;2022-09-09T13:34:57;22.10;99.90
4451;DHT22;2238;50.180;9.230;2022-09-09T13:38:06;20.00;99.90
4451;DHT22;2238;50.180;9.230;2022-09-09T13:41:09;22.70;99.90
4451;DHT22;2238;50.180;9.230;2022-09-09T13:44:37;18.80;99.90
4451;DHT22;2238;50.180;9.230;2022-09-09T13:47:38;21.70;99.90
4451;DHT22;2238;50.180;9.230;2022-09-09T13:50:39;19.40;99.90
4451;DHT22;2238;50.180;9.230;2022-09-09T13:53:41;18.80;99.90
4451;DHT22;2238;50.180;9.230;2022-09-09T13:56:43;19.80;99.90
4451;DHT22;2238;50.180;9.230;2022-09-09T13:59:45;19.20;99.90
4451;DHT22;2238;50.180;9.230;2022-09-09T14:02:47;14.10;99.90
4451;DHT22;2238;50.180;9.230;2022-09-09T14:05:48;18.50;99.90
4451;DHT22;2238;50.180;9.230;2022-09-09T14:08:50;18.60;99.90
4451;DHT22;2238;50.180;9.230;2022-09-09T14:11:51;18.80;99.90
4451;DHT22;2238;50.180;9.230;2022-09-09T14:14:51;18.60;99.90
4451;DHT22;2238;50.180;9.230;2022-09-09T14:17:52;19.20;99.90
4451;DHT22;2238;50.180;9.230;2022-09-09T14:20:52;19.40;99.90
4451;DHT22;2238;50.180;9.230;2022-09-09T14:23:53;19.40;99.90
4451;DHT22;2238;50.180;9.230;2022-09-09T14:26:54;19.80;99.90
4451;DHT22;2238;50.180;9.230;2022-09-09T14:29:55;21.90;99.90
4451;DHT22;2238;50.180;9.230;2022-09-09T14:32:55;19.50;99.90
4451;DHT22;2238;50.180;9.230;2022-09-09T14:36:00;19.60;99.90
4451;DHT22;2238;50.180;9.230;2022-09-09T14:39:01;19.50;99.90
4451;DHT22;2238;50.180;9.230;2022-09-09T14:42:02;19.30;99.90
4451;DHT22;2238;50.180;9.230;2022-09-09T14:45:03;19.50;99.90
4451;DHT22;2238;50.180;9.230;2022-09-09T14:48:04;19.50;99.90
4451;DHT22;2238;50.180;9.230;2022-09-09T14:51:09;19.50;99.90
4451;DHT22;2238;50.180;9.230;2022-09-09T14:54:10;19.60;99.90
4451;DHT22;2238;50.180;9.230;2022-09-09T14:57:11;22.30;99.90
4451;DHT22;2238;50.180;9.230;2022-09-09T15:00:11;20.10;99.90
4451;DHT22;2238;50.180;9.230;2022-09-09T15:03:15;19.70;99.90
4451;DHT22;2238;50.180;9.230;2022-09-09T15:06:16;19.60;99.90
4451;DHT22;2238;50.180;9.230;2022-09-09T15:09:16;19.70;99.90
4451;DHT22;2238;50.180;9.230;2022-09-09T15:12:17;20.70;99.90
4451;DHT22;2238;50.180;9.230;2022-09-09T15:15:19;19.70;99.90
4451;DHT22;2238;50.180;9.230;2022-09-09T15:18:20;19.60;99.90
4451;DHT22;2238;50.180;9.230;2022-09-09T15:21:23;20.60;99.90
4451;DHT22;2238;50.180;9.230;2022-09-09T15:24:24;19.60;99.90
4451;DHT22;2238;50.180;9.230;2022-09-09T15:27:26;20.00;99.90
4451;DHT22;2238;50.180;9.230;2022-09-09T15:30:26;22.70;99.90
4451;DHT22;2238;50.180;9.230;2022-09-09T15:33:27;19.80;99.90
4451;DHT22;2238;50.180;9.230;2022-09-09T15:36:40;19.90;99.90
4451;DHT22;2238;50.180;9.230;2022-09-09T15:39:41;21.10;99.90
4451;DHT22;2238;50.180;9.230;2022-09-09T15:42:42;20.40;99.90
4451;DHT22;2238;50.180;9.230;2022-09-09T15:45:45;19.50;99.90
4451;DHT22;2238;50.180;9.230;2022-09-09T15:48:46;19.50;99.90
4451;DHT22;2238;50.180;9.230;2022-09-09T15:51:57;22.10;99.90
4451;DHT22;2238;50.180;9.230;2022-09-09T15:54:58;19.50;99.90
4451;DHT22;2238;50.180;9.230;2022-09-09T15:58:00;19.40;99.90
4451;DHT22;2238;50.180;9.230;2022-09-09T16:01:10;19.90;99.90
4451;DHT22;2238;50.180;9.230;2022-09-09T16:04:12;22.00;99.90
4451;DHT22;2238;50.180;9.230;2022-09-09T16:07:13;22.00;99.90
4451;DHT22;2238;50.180;9.230;2022-09-09T16:10:14;17.40;99.90
4451;DHT22;2238;50.180;9.230;2022-09-09T16:13:14;21.60;99.90
4451;DHT22;2238;50.180;9.230;2022-09-09T16:16:16;19.40;99.90
4451;DHT22;2238;50.180;9.230;2022-09-09T16:19:17;19.50;99.90
4451;DHT22;2238;50.180;9.230;2022-09-09T16:22:18;19.60;99.90
4451;DHT22;2238;50.180;9.230;2022-09-09T16:25:18;19.70;99.90
4451;DHT22;2238;50.180;9.230;2022-09-09T16:28:19;19.40;99.90
4451;DHT22;2238;50.180;9.230;2022-09-09T16:31:22;19.40;99.90
4451;DHT22;2238;50.180;9.230;2022-09-09T16:34:23;21.60;99.90
4451;DHT22;2238;50.180;9.230;2022-09-09T16:37:25;19.40;99.90
4451;DHT22;2238;50.180;9.230;2022-09-09T16:40:26;19.60;99.90
4451;DHT22;2238;50.180;9.230;2022-09-09T16:43:27;22.20;99.90
4451;DHT22;2238;50.180;9.230;2022-09-09T16:46:29;20.30;99.90
4451;DHT22;2238;50.180;9.230;2022-09-09T16:49:29;21.50;99.90
4451;DHT22;2238;50.180;9.230;2022-09-09T16:52:30;19.80;99.90
4451;DHT22;2238;50.180;9.230;2022-09-09T16:55:30;19.20;99.90
4451;DHT22;2238;50.180;9.230;2022-09-09T16:58:31;19.30;99.90
4451;DHT22;2238;50.180;9.230;2022-09-09T17:01:35;21.30;99.90
4451;DHT22;2238;50.180;9.230;2022-09-09T17:04:37;18.90;99.90
4451;DHT22;2238;50.180;9.230;2022-09-09T17:10:41;18.60;99.90
4451;DHT22;2238;50.180;9.230;2022-09-09T17:13:43;18.50;99.90
4451;DHT22;2238;50.180;9.230;2022-09-09T17:16:44;18.60;99.90
4451;DHT22;2238;50.180;9.230;2022-09-09T17:19:45;20.10;99.90
4451;DHT22;2238;50.180;9.230;2022-09-09T17:22:45;18.60;99.90
4451;DHT22;2238;50.180;9.230;2022-09-09T17:25:56;18.40;99.90
4451;DHT22;2238;50.180;9.230;2022-09-09T17:28:57;18.40;99.90
4451;DHT22;2238;50.180;9.230;2022-09-09T17:32:01;18.40;99.90
4451;DHT22;2238;50.180;9.230;2022-09-09T17:35:02;18.20;99.90
4451;DHT22;2238;50.180;9.230;2022-09-09T17:38:03;18.20;99.90
4451;DHT22;2238;50.180;9.230;2022-09-09T17:41:09;18.30;99.90
4451;DHT22;2238;50.180;9.230;2022-09-09T17:44:10;18.80;99.90
4451;DHT22;2238;50.180;9.230;2022-09-09T17:47:11;18.80;99.90
4451;DHT22;2238;50.180;9.230;2022-09-09T17:50:12;17.90;99.90
4451;DHT22;2238;50.180;9.230;2022-09-09T17:53:13;17.90;99.90
4451;DHT22;2238;50.180;9.230;2022-09-09T17:56:15;17.60;99.90
4451;DHT22;2238;50.180;9.230;2022-09-09T17:59:17;17.80;99.90
4451;DHT22;2238;50.180;9.230;2022-09-09T18:02:18;17.70;99.90
4451;DHT22;2238;50.180;9.230;2022-09-09T18:05:19;18.50;99.90
4451;DHT22;2238;50.180;9.230;2022-09-09T18:08:20;20.70;99.90
4451;DHT22;2238;50.180;9.230;2022-09-09T18:11:22;17.70;99.90
4451;DHT22;2238;50.180;9.230;2022-09-09T18:14:29;17.80;99.90
4451;DHT22;2238;50.180;9.230;2022-09-09T18:17:30;17.90;99.90
4451;DHT22;2238;50.180;9.230;2022-09-09T18:20:31;17.40;99.90
4451;DHT22;2238;50.180;9.230;2022-09-09T18:23:38;17.90;99.90
4451;DHT22;2238;50.180;9.230;2022-09-09T18:26:40;17.60;99.90
4451;DHT22;2238;50.180;9.230;2022-09-09T18:29:41;17.40;99.90
4451;DHT22;2238;50.180;9.230;2022-09-09T18:32:41;19.50;99.90
4451;DHT22;2238;50.180;9.230;2022-09-09T18:35:42;18.50;99.90
4451;DHT22;2238;50.180;9.230;2022-09-09T18:38:43;17.70;99.90
4451;DHT22;2238;50.180;9.230;2022-09-09T18:41:49;17.70;99.90
4451;DHT22;2238;50.180;9.230;2022-09-09T18:44:51;17.70;99.90
4451;DHT22;2238;50.180;9.230;2022-09-09T18:47:52;17.60;99.90
4451;DHT22;2238;50.180;9.230;2022-09-09T18:50:52;17.50;99.90
4451;DHT22;2238;50.180;9.230;2022-09-09T18:53:55;17.50;99.90
4451;DHT22;2238;50.180;9.230;2022-09-09T18:56:56;18.30;99.90
4451;DHT22;2238;50.180;9.230;2022-09-09T19:00:00;17.40;99.90
4451;DHT22;2238;50.180;9.230;2022-09-09T19:03:00;20.00;99.90
4451;DHT22;2238;50.180;9.230;2022-09-09T19:06:03;18.40;99.90
4451;DHT22;2238;50.180;9.230;2022-09-09T19:09:04;17.50;99.90
4451;DHT22;2238;50.180;9.230;2022-09-09T19:12:05;17.50;99.90
4451;DHT22;2238;50.180;9.230;2022-09-09T19:15:06;17.30;99.90
4451;DHT22;2238;50.180;9.230;2022-09-09T19:18:07;17.50;99.90
4451;DHT22;2238;50.180;9.230;2022-09-09T19:21:18;17.30;99.90
4451;DHT22;2238;50.180;9.230;2022-09-09T19:24:21;17.40;99.90
4451;DHT22;2238;50.180;9.230;2022-09-09T19:27:22;17.40;99.90
4451;DHT22;2238;50.180;9.230;2022-09-09T19:30:23;17.20;99.90
4451;DHT22;2238;50.180;9.230;2022-09-09T19:33:26;17.80;99.90
4451;DHT22;2238;50.180;9.230;2022-09-09T19:36:27;17.30;99.90
4451;DHT22;2238;50.180;9.230;2022-09-09T19:39:28;17.40;99.90
4451;DHT22;2238;50.180;9.230;2022-09-09T19:42:29;18.20;99.90
4451;DHT22;2238;50.180;9.230;2022-09-09T19:45:31;17.50;99.90
4451;DHT22;2238;50.180;9.230;2022-09-09T19:48:33;17.40;99.90
4451;DHT22;2238;50.180;9.230;2022-09-09T19:51:34;17.40;99.90
4451;DHT22;2238;50.180;9.230;2022-09-09T19:54:35;17.90;99.90
4451;DHT22;2238;50.180;9.230;2022-09-09T19:57:36;20.20;99.90
4451;DHT22;2238;50.180;9.230;2022-09-09T20:00:37;14.60;99.90
4451;DHT22;2238;50.180;9.230;2022-09-09T20:03:39;17.10;99.90
4451;DHT22;2238;50.180;9.230;2022-09-09T20:06:41;19.60;99.90
4451;DHT22;2238;50.180;9.230;2022-09-09T20:09:45;17.60;99.90
4451;DHT22;2238;50.180;9.230;2022-09-09T20:12:46;17.10;99.90
4451;DHT22;2238;50.180;9.230;2022-09-09T20:15:58;17.50;99.90
4451;DHT22;2238;50.180;9.230;2022-09-09T20:19:02;16.90;99.90
4451;DHT22;2238;50.180;9.230;2022-09-09T20:22:03;16.60;99.90
4451;DHT22;2238;50.180;9.230;2022-09-09T20:25:04;16.50;99.90
4451;DHT22;2238;50.180;9.230;2022-09-09T20:28:04;16.50;99.90
4451;DHT22;2238;50.180;9.230;2022-09-09T20:31:26;16.60;99.90
4451;DHT22;2238;50.180;9.230;2022-09-09T20:34:26;16.40;99.90
4451;DHT22;2238;50.180;9.230;2022-09-09T20:37:29;16.60;99.90
4451;DHT22;2238;50.180;9.230;2022-09-09T20:40:31;17.00;99.90
4451;DHT22;2238;50.180;9.230;2022-09-09T20:43:34;16.10;99.90
4451;DHT22;2238;50.180;9.230;2022-09-09T20:46:36;16.00;99.90
4451;DHT22;2238;50.180;9.230;2022-09-09T20:49:37;16.90;99.90
4451;DHT22;2238;50.180;9.230;2022-09-09T20:52:38;16.40;99.90
4451;DHT22;2238;50.180;9.230;2022-09-09T20:55:39;16.30;99.90
4451;DHT22;2238;50.180;9.230;2022-09-09T21:01:41;16.00;99.90
4451;DHT22;2238;50.180;9.230;2022-09-09T21:04:41;16.60;99.90
4451;DHT22;2238;50.180;9.230;2022-09-09T21:10:45;15.70;99.90
4451;DHT22;2238;50.180;9.230;2022-09-09T21:13:47;15.80;99.90
4451;DHT22;2238;50.180;9.230;2022-09-09T21:16:47;16.90;99.90
4451;DHT22;2238;50.180;9.230;2022-09-09T21:19:48;15.80;99.90
4451;DHT22;2238;50.180;9.230;2022-09-09T21:22:48;15.80;99.90
4451;DHT22;2238;50.180;9.230;2022-09-09T21:25:50;16.80;99.90
4451;DHT22;2238;50.180;9.230;2022-09-09T21:28:51;15.90;99.90
4451;DHT22;2238;50.180;9.230;2022-09-09T21:31:53;16.60;99.90
4451;DHT22;2238;50.180;9.230;2022-09-09T21:34:55;17.20;99.90
4451;DHT22;2238;50.180;9.230;2022-09-09T21:37:56;16.00;99.90
4451;DHT22;2238;50.180;9.230;2022-09-09T21:41:00;16.10;99.90
4451;DHT22;2238;50.180;9.230;2022-09-09T21:44:01;16.60;99.90
4451;DHT22;2238;50.180;9.230;2022-09-09T21:47:03;15.90;99.90
4451;DHT22;2238;50.180;9.230;2022-09-09T21:50:04;15.90;99.90
4451;DHT22;2238;50.180;9.230;2022-09-09T21:53:05;15.80;99.90
4451;DHT22;2238;50.180;9.230;2022-09-09T21:56:10;18.30;99.90